Terminal Aerodrome Forecast
Issued by NWS

Home | Current Version | Previous Version | Text Only | Print | Product List | Glossary On
Versions: 1 2 3 4 5 6 7 8 9 10 11 12
000
FTUS44 KMOB 242336
TAFBFM
TAF
KBFM 242336Z 2500/2524 VRB02KT P6SM FEW050 SCT250
     FM251400 VRB05KT P6SM FEW050
     FM252000 15006KT P6SM SCT050 SCT250=

USA.gov is the U.S. government's official web portal to all federal, state and local government web resources and services.